<?xml version='1.0' encoding='UTF-8'?>
<gpx version="1.1" creator="https://www.komoot.de" xmlns="http://www.topografix.com/GPX/1/1" xmlns:xsi="http://www.w3.org/2001/XMLSchema-instance" xsi:schemaLocation="http://www.topografix.com/GPX/1/1 http://www.topografix.com/GPX/1/1/gpx.xsd">
  <metadata>
    <name>Bad Rappenau Grenzweg 5 km</name>
    <author>
      <link href="https://www.komoot.de">
        <text>komoot</text>
        <type>text/html</type>
      </link>
    </author>
  </metadata>
  <trk>
    <name>Bad Rappenau Grenzweg 5 km</name>
    <trkseg>
      <trkpt lat="49.238247" lon="9.102080">
        <ele>235.174773</ele>
        <time>2022-04-06T07:29:58.967Z</time>
      </trkpt>
      <trkpt lat="49.238203" lon="9.101922">
        <ele>235.174773</ele>
        <time>2022-04-06T07:30:10.531Z</time>
      </trkpt>
      <trkpt lat="49.238158" lon="9.101920">
        <ele>235.174773</ele>
        <time>2022-04-06T07:30:15.084Z</time>
      </trkpt>
      <trkpt lat="49.238110" lon="9.101919">
        <ele>235.174773</ele>
        <time>2022-04-06T07:30:19.992Z</time>
      </trkpt>
      <trkpt lat="49.238069" lon="9.101926">
        <ele>235.174773</ele>
        <time>2022-04-06T07:30:24.197Z</time>
      </trkpt>
      <trkpt lat="49.238070" lon="9.101932">
        <ele>235.174773</ele>
        <time>2022-04-06T07:30:24.664Z</time>
      </trkpt>
      <trkpt lat="49.238069" lon="9.101926">
        <ele>235.174773</ele>
        <time>2022-04-06T07:30:25.185Z</time>
      </trkpt>
      <trkpt lat="49.238053" lon="9.101856">
        <ele>235.174773</ele>
        <time>2022-04-06T07:30:30.216Z</time>
      </trkpt>
      <trkpt lat="49.237896" lon="9.101913">
        <ele>235.174773</ele>
        <time>2022-04-06T07:30:47.392Z</time>
      </trkpt>
      <trkpt lat="49.237897" lon="9.101923">
        <ele>235.174773</ele>
        <time>2022-04-06T07:30:48.069Z</time>
      </trkpt>
      <trkpt lat="49.237903" lon="9.101995">
        <ele>235.174773</ele>
        <time>2022-04-06T07:30:52.957Z</time>
      </trkpt>
      <trkpt lat="49.238042" lon="9.103587">
        <ele>235.641356</ele>
        <time>2022-04-06T07:32:42.452Z</time>
      </trkpt>
      <trkpt lat="49.238060" lon="9.103656">
        <ele>235.675259</ele>
        <time>2022-04-06T07:32:47.447Z</time>
      </trkpt>
      <trkpt lat="49.238056" lon="9.103661">
        <ele>235.678867</ele>
        <time>2022-04-06T07:32:48.347Z</time>
      </trkpt>
      <trkpt lat="49.238060" lon="9.103656">
        <ele>235.682475</ele>
        <time>2022-04-06T07:32:48.993Z</time>
      </trkpt>
      <trkpt lat="49.238076" lon="9.103757">
        <ele>235.729896</ele>
        <time>2022-04-06T07:32:55.909Z</time>
      </trkpt>
      <trkpt lat="49.237914" lon="9.103956">
        <ele>235.875020</ele>
        <time>2022-04-06T07:33:17.376Z</time>
      </trkpt>
      <trkpt lat="49.237913" lon="9.103962">
        <ele>235.877846</ele>
        <time>2022-04-06T07:33:17.998Z</time>
      </trkpt>
      <trkpt lat="49.237885" lon="9.104178">
        <ele>235.978326</ele>
        <time>2022-04-06T07:33:32.482Z</time>
      </trkpt>
      <trkpt lat="49.238224" lon="9.106422">
        <ele>236.816806</ele>
        <time>2022-04-06T07:36:03.582Z</time>
      </trkpt>
      <trkpt lat="49.238342" lon="9.107200">
        <ele>237.051668</ele>
        <time>2022-04-06T07:36:56.357Z</time>
      </trkpt>
      <trkpt lat="49.238578" lon="9.107926">
        <ele>237.488538</ele>
        <time>2022-04-06T07:37:51.283Z</time>
      </trkpt>
      <trkpt lat="49.238539" lon="9.108342">
        <ele>238.118841</ele>
        <time>2022-04-06T07:38:19.936Z</time>
      </trkpt>
      <trkpt lat="49.238576" lon="9.108601">
        <ele>238.516471</ele>
        <time>2022-04-06T07:38:38.361Z</time>
      </trkpt>
      <trkpt lat="49.238715" lon="9.109010">
        <ele>239.208000</ele>
        <time>2022-04-06T07:39:10.228Z</time>
      </trkpt>
      <trkpt lat="49.238734" lon="9.109177">
        <ele>239.462235</ele>
        <time>2022-04-06T07:39:22.235Z</time>
      </trkpt>
      <trkpt lat="49.238726" lon="9.109238">
        <ele>239.555548</ele>
        <time>2022-04-06T07:39:26.741Z</time>
      </trkpt>
      <trkpt lat="49.238693" lon="9.109506">
        <ele>239.964570</ele>
        <time>2022-04-06T07:39:46.100Z</time>
      </trkpt>
      <trkpt lat="49.238589" lon="9.109758">
        <ele>240.411683</ele>
        <time>2022-04-06T07:40:07.890Z</time>
      </trkpt>
      <trkpt lat="49.238373" lon="9.109649">
        <ele>240.934084</ele>
        <time>2022-04-06T07:40:33.281Z</time>
      </trkpt>
      <trkpt lat="49.238251" lon="9.109560">
        <ele>241.244489</ele>
        <time>2022-04-06T07:40:48.469Z</time>
      </trkpt>
      <trkpt lat="49.238171" lon="9.109500">
        <ele>241.453419</ele>
        <time>2022-04-06T07:40:58.416Z</time>
      </trkpt>
      <trkpt lat="49.237912" lon="9.109353">
        <ele>242.124031</ele>
        <time>2022-04-06T07:41:29.915Z</time>
      </trkpt>
      <trkpt lat="49.237918" lon="9.109393">
        <ele>242.189091</ele>
        <time>2022-04-06T07:41:33.172Z</time>
      </trkpt>
      <trkpt lat="49.237984" lon="9.109807">
        <ele>242.864650</ele>
        <time>2022-04-06T07:42:04.183Z</time>
      </trkpt>
      <trkpt lat="49.238020" lon="9.110030">
        <ele>243.228797</ele>
        <time>2022-04-06T07:42:21.126Z</time>
      </trkpt>
      <trkpt lat="49.238072" lon="9.110363">
        <ele>243.771560</ele>
        <time>2022-04-06T07:42:45.638Z</time>
      </trkpt>
      <trkpt lat="49.238103" lon="9.110558">
        <ele>244.089707</ele>
        <time>2022-04-06T07:43:00.087Z</time>
      </trkpt>
      <trkpt lat="49.238163" lon="9.110934">
        <ele>244.703289</ele>
        <time>2022-04-06T07:43:26.314Z</time>
      </trkpt>
      <trkpt lat="49.238215" lon="9.111278">
        <ele>245.263025</ele>
        <time>2022-04-06T07:43:50.408Z</time>
      </trkpt>
      <trkpt lat="49.238222" lon="9.111324">
        <ele>245.337899</ele>
        <time>2022-04-06T07:43:53.610Z</time>
      </trkpt>
      <trkpt lat="49.238245" lon="9.111481">
        <ele>245.592964</ele>
        <time>2022-04-06T07:44:04.638Z</time>
      </trkpt>
      <trkpt lat="49.238309" lon="9.111930">
        <ele>245.766086</ele>
        <time>2022-04-06T07:44:35.818Z</time>
      </trkpt>
      <trkpt lat="49.238330" lon="9.112093">
        <ele>245.777796</ele>
        <time>2022-04-06T07:44:47.122Z</time>
      </trkpt>
      <trkpt lat="49.238342" lon="9.112235">
        <ele>245.787888</ele>
        <time>2022-04-06T07:44:56.593Z</time>
      </trkpt>
      <trkpt lat="49.238392" lon="9.112715">
        <ele>245.822148</ele>
        <time>2022-04-06T07:45:28.982Z</time>
      </trkpt>
      <trkpt lat="49.238372" lon="9.112721">
        <ele>245.824348</ele>
        <time>2022-04-06T07:45:31.229Z</time>
      </trkpt>
      <trkpt lat="49.238101" lon="9.112811">
        <ele>245.854284</ele>
        <time>2022-04-06T07:45:59.086Z</time>
      </trkpt>
      <trkpt lat="49.237753" lon="9.112943">
        <ele>245.892986</ele>
        <time>2022-04-06T07:46:35.021Z</time>
      </trkpt>
      <trkpt lat="49.237678" lon="9.112984">
        <ele>245.901583</ele>
        <time>2022-04-06T07:46:43.208Z</time>
      </trkpt>
      <trkpt lat="49.237470" lon="9.113101">
        <ele>245.925504</ele>
        <time>2022-04-06T07:47:05.693Z</time>
      </trkpt>
      <trkpt lat="49.237225" lon="9.113162">
        <ele>246.163556</ele>
        <time>2022-04-06T07:47:31.243Z</time>
      </trkpt>
      <trkpt lat="49.236491" lon="9.113453">
        <ele>247.211982</ele>
        <time>2022-04-06T07:48:47.357Z</time>
      </trkpt>
      <trkpt lat="49.236468" lon="9.113489">
        <ele>247.257458</ele>
        <time>2022-04-06T07:48:51.091Z</time>
      </trkpt>
      <trkpt lat="49.236491" lon="9.113453">
        <ele>247.302933</ele>
        <time>2022-04-06T07:48:54.569Z</time>
      </trkpt>
      <trkpt lat="49.236496" lon="9.113568">
        <ele>247.406994</ele>
        <time>2022-04-06T07:49:02.820Z</time>
      </trkpt>
      <trkpt lat="49.236533" lon="9.114416">
        <ele>248.174344</ele>
        <time>2022-04-06T07:50:04.684Z</time>
      </trkpt>
      <trkpt lat="49.236533" lon="9.114416">
        <ele>248.174344</ele>
        <time>2022-04-06T07:50:05.095Z</time>
      </trkpt>
      <trkpt lat="49.236286" lon="9.114461">
        <ele>248.631134</ele>
        <time>2022-04-06T07:50:33.462Z</time>
      </trkpt>
      <trkpt lat="49.235514" lon="9.114624">
        <ele>250.965656</ele>
        <time>2022-04-06T07:52:01.715Z</time>
      </trkpt>
      <trkpt lat="49.235041" lon="9.114712">
        <ele>252.393019</ele>
        <time>2022-04-06T07:52:54.333Z</time>
      </trkpt>
      <trkpt lat="49.234894" lon="9.114738">
        <ele>252.836308</ele>
        <time>2022-04-06T07:53:10.726Z</time>
      </trkpt>
      <trkpt lat="49.234541" lon="9.114750">
        <ele>253.813232</ele>
        <time>2022-04-06T07:53:48.673Z</time>
      </trkpt>
      <trkpt lat="49.234352" lon="9.114641">
        <ele>253.838672</ele>
        <time>2022-04-06T07:54:10.142Z</time>
      </trkpt>
      <trkpt lat="49.234290" lon="9.114679">
        <ele>253.847084</ele>
        <time>2022-04-06T07:54:17.135Z</time>
      </trkpt>
      <trkpt lat="49.234060" lon="9.114463">
        <ele>253.881070</ele>
        <time>2022-04-06T07:54:45.094Z</time>
      </trkpt>
      <trkpt lat="49.233980" lon="9.114389">
        <ele>253.892843</ele>
        <time>2022-04-06T07:54:54.522Z</time>
      </trkpt>
      <trkpt lat="49.233892" lon="9.114308">
        <ele>253.905776</ele>
        <time>2022-04-06T07:55:04.910Z</time>
      </trkpt>
      <trkpt lat="49.233405" lon="9.113856">
        <ele>253.977508</ele>
        <time>2022-04-06T07:56:02.454Z</time>
      </trkpt>
      <trkpt lat="49.233377" lon="9.113829">
        <ele>253.981676</ele>
        <time>2022-04-06T07:56:05.807Z</time>
      </trkpt>
      <trkpt lat="49.233311" lon="9.113756">
        <ele>253.991931</ele>
        <time>2022-04-06T07:56:14.235Z</time>
      </trkpt>
      <trkpt lat="49.233264" lon="9.113801">
        <ele>253.998914</ele>
        <time>2022-04-06T07:56:19.837Z</time>
      </trkpt>
      <trkpt lat="49.233264" lon="9.113801">
        <ele>253.998914</ele>
        <time>2022-04-06T07:56:19.925Z</time>
      </trkpt>
      <trkpt lat="49.233264" lon="9.113801">
        <ele>253.998914</ele>
        <time>2022-04-06T07:56:20.037Z</time>
      </trkpt>
      <trkpt lat="49.233301" lon="9.114060">
        <ele>254.020721</ele>
        <time>2022-04-06T07:56:37.642Z</time>
      </trkpt>
      <trkpt lat="49.233336" lon="9.114445">
        <ele>253.948040</ele>
        <time>2022-04-06T07:57:03.681Z</time>
      </trkpt>
      <trkpt lat="49.233351" lon="9.114618">
        <ele>253.871019</ele>
        <time>2022-04-06T07:57:15.284Z</time>
      </trkpt>
      <trkpt lat="49.233472" lon="9.115537">
        <ele>253.457268</ele>
        <time>2022-04-06T07:58:17.866Z</time>
      </trkpt>
      <trkpt lat="49.234060" lon="9.120010">
        <ele>251.505697</ele>
        <time>2022-04-06T08:03:18.501Z</time>
      </trkpt>
      <trkpt lat="49.234469" lon="9.123585">
        <ele>247.533738</ele>
        <time>2022-04-06T08:07:25.407Z</time>
      </trkpt>
      <trkpt lat="49.234445" lon="9.123600">
        <ele>247.490010</ele>
        <time>2022-04-06T08:07:29.193Z</time>
      </trkpt>
      <trkpt lat="49.234469" lon="9.123585">
        <ele>247.446282</ele>
        <time>2022-04-06T08:07:33.821Z</time>
      </trkpt>
      <trkpt lat="49.234591" lon="9.123527">
        <ele>247.230788</ele>
        <time>2022-04-06T08:07:47.101Z</time>
      </trkpt>
      <trkpt lat="49.235630" lon="9.122862">
        <ele>245.684822</ele>
        <time>2022-04-06T08:09:43.452Z</time>
      </trkpt>
      <trkpt lat="49.236581" lon="9.122268">
        <ele>245.098052</ele>
        <time>2022-04-06T08:11:27.372Z</time>
      </trkpt>
      <trkpt lat="49.236679" lon="9.122213">
        <ele>245.038422</ele>
        <time>2022-04-06T08:11:37.911Z</time>
      </trkpt>
      <trkpt lat="49.236888" lon="9.122096">
        <ele>244.911291</ele>
        <time>2022-04-06T08:12:00.208Z</time>
      </trkpt>
      <trkpt lat="49.236878" lon="9.121696">
        <ele>244.889210</ele>
        <time>2022-04-06T08:12:26.895Z</time>
      </trkpt>
      <trkpt lat="49.236847" lon="9.120369">
        <ele>245.219151</ele>
        <time>2022-04-06T08:13:54.716Z</time>
      </trkpt>
      <trkpt lat="49.236832" lon="9.120152">
        <ele>245.273372</ele>
        <time>2022-04-06T08:14:09.139Z</time>
      </trkpt>
      <trkpt lat="49.236742" lon="9.119150">
        <ele>245.519968</ele>
        <time>2022-04-06T08:15:17.556Z</time>
      </trkpt>
      <trkpt lat="49.236718" lon="9.118877">
        <ele>245.415303</ele>
        <time>2022-04-06T08:15:35.730Z</time>
      </trkpt>
      <trkpt lat="49.236700" lon="9.118347">
        <ele>245.213651</ele>
        <time>2022-04-06T08:16:10.743Z</time>
      </trkpt>
      <trkpt lat="49.236624" lon="9.117740">
        <ele>244.978812</ele>
        <time>2022-04-06T08:16:52.024Z</time>
      </trkpt>
      <trkpt lat="49.236604" lon="9.117534">
        <ele>244.899680</ele>
        <time>2022-04-06T08:17:05.960Z</time>
      </trkpt>
      <trkpt lat="49.236610" lon="9.116847">
        <ele>244.638623</ele>
        <time>2022-04-06T08:17:51.716Z</time>
      </trkpt>
      <trkpt lat="49.236611" lon="9.116828">
        <ele>244.631380</ele>
        <time>2022-04-06T08:17:53.167Z</time>
      </trkpt>
      <trkpt lat="49.236610" lon="9.116847">
        <ele>244.624137</ele>
        <time>2022-04-06T08:17:54.749Z</time>
      </trkpt>
      <trkpt lat="49.237257" lon="9.116454">
        <ele>244.300907</ele>
        <time>2022-04-06T08:19:05.683Z</time>
      </trkpt>
      <trkpt lat="49.237411" lon="9.116359">
        <ele>244.235042</ele>
        <time>2022-04-06T08:19:22.590Z</time>
      </trkpt>
      <trkpt lat="49.237422" lon="9.116351">
        <ele>244.230211</ele>
        <time>2022-04-06T08:19:23.841Z</time>
      </trkpt>
      <trkpt lat="49.237744" lon="9.116169">
        <ele>244.094044</ele>
        <time>2022-04-06T08:19:58.714Z</time>
      </trkpt>
      <trkpt lat="49.237905" lon="9.115953">
        <ele>244.009132</ele>
        <time>2022-04-06T08:20:20.443Z</time>
      </trkpt>
      <trkpt lat="49.237865" lon="9.115317">
        <ele>243.843627</ele>
        <time>2022-04-06T08:21:02.603Z</time>
      </trkpt>
      <trkpt lat="49.237844" lon="9.115313">
        <ele>243.835232</ele>
        <time>2022-04-06T08:21:04.831Z</time>
      </trkpt>
      <trkpt lat="49.237865" lon="9.115317">
        <ele>243.826836</ele>
        <time>2022-04-06T08:21:07.092Z</time>
      </trkpt>
      <trkpt lat="49.238157" lon="9.115241">
        <ele>243.918675</ele>
        <time>2022-04-06T08:21:37.484Z</time>
      </trkpt>
      <trkpt lat="49.238186" lon="9.115464">
        <ele>244.091330</ele>
        <time>2022-04-06T08:21:52.991Z</time>
      </trkpt>
      <trkpt lat="49.238232" lon="9.115451">
        <ele>244.145730</ele>
        <time>2022-04-06T08:21:57.997Z</time>
      </trkpt>
      <trkpt lat="49.238341" lon="9.116205">
        <ele>244.732126</ele>
        <time>2022-04-06T08:22:52.072Z</time>
      </trkpt>
      <trkpt lat="49.238417" lon="9.116742">
        <ele>245.149351</ele>
        <time>2022-04-06T08:23:30.078Z</time>
      </trkpt>
      <trkpt lat="49.238368" lon="9.116758">
        <ele>245.207617</ele>
        <time>2022-04-06T08:23:35.174Z</time>
      </trkpt>
      <trkpt lat="49.238417" lon="9.116742">
        <ele>245.265884</ele>
        <time>2022-04-06T08:23:40.445Z</time>
      </trkpt>
      <trkpt lat="49.238610" lon="9.116679">
        <ele>245.495379</ele>
        <time>2022-04-06T08:24:01.034Z</time>
      </trkpt>
      <trkpt lat="49.238944" lon="9.116571">
        <ele>245.855401</ele>
        <time>2022-04-06T08:24:36.054Z</time>
      </trkpt>
      <trkpt lat="49.239367" lon="9.116432">
        <ele>245.869217</ele>
        <time>2022-04-06T08:25:20.326Z</time>
      </trkpt>
      <trkpt lat="49.239450" lon="9.116401">
        <ele>245.871946</ele>
        <time>2022-04-06T08:25:29.175Z</time>
      </trkpt>
      <trkpt lat="49.239539" lon="9.116369">
        <ele>245.874865</ele>
        <time>2022-04-06T08:25:38.765Z</time>
      </trkpt>
      <trkpt lat="49.239689" lon="9.116349">
        <ele>245.879674</ele>
        <time>2022-04-06T08:25:54.218Z</time>
      </trkpt>
      <trkpt lat="49.239840" lon="9.116250">
        <ele>245.884919</ele>
        <time>2022-04-06T08:26:11.196Z</time>
      </trkpt>
      <trkpt lat="49.239935" lon="9.115974">
        <ele>245.891425</ele>
        <time>2022-04-06T08:26:32.432Z</time>
      </trkpt>
      <trkpt lat="49.239943" lon="9.115949">
        <ele>245.892006</ele>
        <time>2022-04-06T08:26:34.385Z</time>
      </trkpt>
      <trkpt lat="49.239873" lon="9.115381">
        <ele>245.904058</ele>
        <time>2022-04-06T08:27:12.378Z</time>
      </trkpt>
      <trkpt lat="49.239809" lon="9.114973">
        <ele>245.826046</ele>
        <time>2022-04-06T08:27:40.629Z</time>
      </trkpt>
      <trkpt lat="49.239671" lon="9.114078">
        <ele>244.195760</ele>
        <time>2022-04-06T08:28:44.438Z</time>
      </trkpt>
      <trkpt lat="49.239654" lon="9.114087">
        <ele>244.146921</ele>
        <time>2022-04-06T08:28:46.273Z</time>
      </trkpt>
      <trkpt lat="49.239671" lon="9.114078">
        <ele>244.098082</ele>
        <time>2022-04-06T08:28:48.230Z</time>
      </trkpt>
      <trkpt lat="49.239820" lon="9.114009">
        <ele>243.675420</ele>
        <time>2022-04-06T08:29:04.862Z</time>
      </trkpt>
      <trkpt lat="49.240510" lon="9.113436">
        <ele>241.544233</ele>
        <time>2022-04-06T08:30:27.952Z</time>
      </trkpt>
      <trkpt lat="49.240524" lon="9.113425">
        <ele>241.501509</ele>
        <time>2022-04-06T08:30:29.609Z</time>
      </trkpt>
      <trkpt lat="49.240543" lon="9.113444">
        <ele>241.439897</ele>
        <time>2022-04-06T08:30:32.099Z</time>
      </trkpt>
      <trkpt lat="49.240576" lon="9.113411">
        <ele>241.332887</ele>
        <time>2022-04-06T08:30:36.260Z</time>
      </trkpt>
      <trkpt lat="49.240520" lon="9.113401">
        <ele>241.179802</ele>
        <time>2022-04-06T08:30:42.268Z</time>
      </trkpt>
      <trkpt lat="49.240523" lon="9.113426">
        <ele>241.134741</ele>
        <time>2022-04-06T08:30:44.081Z</time>
      </trkpt>
      <trkpt lat="49.240534" lon="9.113444">
        <ele>241.091034</ele>
        <time>2022-04-06T08:30:45.835Z</time>
      </trkpt>
      <trkpt lat="49.240576" lon="9.113396">
        <ele>240.948668</ele>
        <time>2022-04-06T08:30:51.434Z</time>
      </trkpt>
      <trkpt lat="49.240521" lon="9.113391">
        <ele>240.798919</ele>
        <time>2022-04-06T08:30:57.234Z</time>
      </trkpt>
      <trkpt lat="49.240580" lon="9.113342">
        <ele>240.616506</ele>
        <time>2022-04-06T08:31:04.582Z</time>
      </trkpt>
      <trkpt lat="49.240559" lon="9.113152">
        <ele>240.274556</ele>
        <time>2022-04-06T08:31:17.903Z</time>
      </trkpt>
      <trkpt lat="49.240553" lon="9.113098">
        <ele>240.177356</ele>
        <time>2022-04-06T08:31:21.781Z</time>
      </trkpt>
      <trkpt lat="49.240390" lon="9.112497">
        <ele>239.022530</ele>
        <time>2022-04-06T08:32:07.535Z</time>
      </trkpt>
      <trkpt lat="49.240344" lon="9.112411">
        <ele>238.825249</ele>
        <time>2022-04-06T08:32:15.157Z</time>
      </trkpt>
      <trkpt lat="49.240249" lon="9.112236">
        <ele>238.421391</ele>
        <time>2022-04-06T08:32:31.140Z</time>
      </trkpt>
      <trkpt lat="49.240214" lon="9.111835">
        <ele>237.703486</ele>
        <time>2022-04-06T08:32:58.926Z</time>
      </trkpt>
      <trkpt lat="49.240081" lon="9.111321">
        <ele>236.722372</ele>
        <time>2022-04-06T08:33:36.525Z</time>
      </trkpt>
      <trkpt lat="49.240105" lon="9.110787">
        <ele>235.887339</ele>
        <time>2022-04-06T08:34:12.792Z</time>
      </trkpt>
      <trkpt lat="49.240106" lon="9.110760">
        <ele>235.854365</ele>
        <time>2022-04-06T08:34:14.760Z</time>
      </trkpt>
      <trkpt lat="49.239957" lon="9.110608">
        <ele>235.520030</ele>
        <time>2022-04-06T08:34:33.181Z</time>
      </trkpt>
      <trkpt lat="49.239659" lon="9.109663">
        <ele>234.240422</ele>
        <time>2022-04-06T08:35:44.579Z</time>
      </trkpt>
      <trkpt lat="49.239325" lon="9.108442">
        <ele>232.677807</ele>
        <time>2022-04-06T08:37:14.478Z</time>
      </trkpt>
      <trkpt lat="49.239300" lon="9.108453">
        <ele>232.645478</ele>
        <time>2022-04-06T08:37:17.301Z</time>
      </trkpt>
      <trkpt lat="49.239325" lon="9.108442">
        <ele>232.613149</ele>
        <time>2022-04-06T08:37:20.137Z</time>
      </trkpt>
      <trkpt lat="49.239491" lon="9.108199">
        <ele>232.327750</ele>
        <time>2022-04-06T08:37:43.887Z</time>
      </trkpt>
      <trkpt lat="49.239667" lon="9.108083">
        <ele>232.089606</ele>
        <time>2022-04-06T08:38:03.605Z</time>
      </trkpt>
      <trkpt lat="49.239607" lon="9.107867">
        <ele>231.899121</ele>
        <time>2022-04-06T08:38:19.444Z</time>
      </trkpt>
      <trkpt lat="49.239666" lon="9.107819">
        <ele>231.816087</ele>
        <time>2022-04-06T08:38:26.293Z</time>
      </trkpt>
      <trkpt lat="49.239666" lon="9.107819">
        <ele>231.816087</ele>
        <time>2022-04-06T08:38:26.341Z</time>
      </trkpt>
      <trkpt lat="49.239666" lon="9.107819">
        <ele>231.816087</ele>
        <time>2022-04-06T08:38:26.374Z</time>
      </trkpt>
      <trkpt lat="49.239661" lon="9.107717">
        <ele>231.733083</ele>
        <time>2022-04-06T08:38:33.125Z</time>
      </trkpt>
      <trkpt lat="49.239613" lon="9.107065">
        <ele>231.200643</ele>
        <time>2022-04-06T08:39:17.283Z</time>
      </trkpt>
      <trkpt lat="49.239570" lon="9.106247">
        <ele>230.546301</ele>
        <time>2022-04-06T08:40:12.083Z</time>
      </trkpt>
      <trkpt lat="49.239543" lon="9.105905">
        <ele>230.585625</ele>
        <time>2022-04-06T08:40:34.787Z</time>
      </trkpt>
      <trkpt lat="49.239473" lon="9.105004">
        <ele>230.689202</ele>
        <time>2022-04-06T08:41:34.187Z</time>
      </trkpt>
      <trkpt lat="49.239431" lon="9.104477">
        <ele>230.749807</ele>
        <time>2022-04-06T08:42:09.592Z</time>
      </trkpt>
      <trkpt lat="49.239389" lon="9.103843">
        <ele>230.822551</ele>
        <time>2022-04-06T08:42:51.974Z</time>
      </trkpt>
      <trkpt lat="49.239385" lon="9.103836">
        <ele>230.823613</ele>
        <time>2022-04-06T08:42:52.627Z</time>
      </trkpt>
      <trkpt lat="49.239148" lon="9.103392">
        <ele>230.859344</ele>
        <time>2022-04-06T08:43:30.918Z</time>
      </trkpt>
      <trkpt lat="49.239035" lon="9.102915">
        <ele>230.859344</ele>
        <time>2022-04-06T08:44:05.217Z</time>
      </trkpt>
      <trkpt lat="49.238946" lon="9.102534">
        <ele>230.859344</ele>
        <time>2022-04-06T08:44:32.746Z</time>
      </trkpt>
      <trkpt lat="49.238938" lon="9.102506">
        <ele>230.859344</ele>
        <time>2022-04-06T08:44:34.784Z</time>
      </trkpt>
      <trkpt lat="49.238911" lon="9.102408">
        <ele>230.859344</ele>
        <time>2022-04-06T08:44:41.934Z</time>
      </trkpt>
      <trkpt lat="49.238886" lon="9.102320">
        <ele>230.859344</ele>
        <time>2022-04-06T08:44:48.518Z</time>
      </trkpt>
      <trkpt lat="49.238869" lon="9.102257">
        <ele>230.859344</ele>
        <time>2022-04-06T08:44:53.168Z</time>
      </trkpt>
      <trkpt lat="49.238869" lon="9.102257">
        <ele>230.859344</ele>
        <time>2022-04-06T08:44:53.193Z</time>
      </trkpt>
      <trkpt lat="49.238697" lon="9.102389">
        <ele>230.859344</ele>
        <time>2022-04-06T08:45:13.234Z</time>
      </trkpt>
      <trkpt lat="49.238687" lon="9.102398">
        <ele>230.859344</ele>
        <time>2022-04-06T08:45:14.449Z</time>
      </trkpt>
      <trkpt lat="49.238666" lon="9.102415">
        <ele>230.859344</ele>
        <time>2022-04-06T08:45:16.922Z</time>
      </trkpt>
      <trkpt lat="49.238550" lon="9.102508">
        <ele>230.859344</ele>
        <time>2022-04-06T08:45:30.543Z</time>
      </trkpt>
      <trkpt lat="49.238521" lon="9.102532">
        <ele>230.859344</ele>
        <time>2022-04-06T08:45:34.032Z</time>
      </trkpt>
      <trkpt lat="49.238443" lon="9.102595">
        <ele>230.859344</ele>
        <time>2022-04-06T08:45:43.165Z</time>
      </trkpt>
      <trkpt lat="49.238423" lon="9.102612">
        <ele>230.859344</ele>
        <time>2022-04-06T08:45:45.572Z</time>
      </trkpt>
      <trkpt lat="49.238403" lon="9.102628">
        <ele>230.859344</ele>
        <time>2022-04-06T08:45:47.955Z</time>
      </trkpt>
      <trkpt lat="49.238407" lon="9.102642">
        <ele>230.859344</ele>
        <time>2022-04-06T08:45:49.015Z</time>
      </trkpt>
      <trkpt lat="49.238407" lon="9.102642">
        <ele>230.859344</ele>
        <time>2022-04-06T08:45:49.015Z</time>
      </trkpt>
      <trkpt lat="49.238419" lon="9.102679">
        <ele>230.859344</ele>
        <time>2022-04-06T08:45:51.730Z</time>
      </trkpt>
      <trkpt lat="49.238392" lon="9.102699">
        <ele>230.859344</ele>
        <time>2022-04-06T08:45:54.827Z</time>
      </trkpt>
      <trkpt lat="49.238419" lon="9.102679">
        <ele>230.859344</ele>
        <time>2022-04-06T08:45:57.865Z</time>
      </trkpt>
      <trkpt lat="49.238407" lon="9.102642">
        <ele>230.859344</ele>
        <time>2022-04-06T08:46:00.625Z</time>
      </trkpt>
      <trkpt lat="49.238407" lon="9.102642">
        <ele>230.859344</ele>
        <time>2022-04-06T08:46:00.625Z</time>
      </trkpt>
      <trkpt lat="49.238403" lon="9.102628">
        <ele>230.859344</ele>
        <time>2022-04-06T08:46:01.717Z</time>
      </trkpt>
      <trkpt lat="49.238260" lon="9.102124">
        <ele>230.859344</ele>
        <time>2022-04-06T08:46:39.013Z</time>
      </trkpt>
    </trkseg>
  </trk>
</gpx>